createdAt,value
2017-11-12T07:29:41.392Z,188
2017-11-12T07:30:21.960Z,192
2017-11-12T07:31:02.487Z,192
2017-11-12T07:31:43.083Z,192
2017-11-12T07:32:23.596Z,192
2017-11-12T07:33:04.092Z,196
2017-11-12T07:33:44.691Z,192
2017-11-12T07:34:25.215Z,192
2017-11-12T07:35:05.737Z,196
2017-11-12T07:35:46.252Z,196
2017-11-12T07:36:26.779Z,204
2017-11-12T07:37:07.318Z,212
2017-11-12T07:37:47.900Z,212
2017-11-12T07:38:28.397Z,220
2017-11-12T07:39:08.937Z,220
2017-11-12T07:39:49.480Z,220
2017-11-12T07:40:30.040Z,212
2017-11-12T07:41:10.543Z,216
2017-11-12T07:41:51.082Z,216
2017-11-12T07:42:31.590Z,216
2017-11-12T07:43:12.137Z,216
2017-11-12T07:43:52.742Z,212
2017-11-12T07:44:33.282Z,208
2017-11-12T07:45:13.835Z,208
2017-11-12T07:45:54.343Z,216
2017-11-12T07:46:34.856Z,224
2017-11-12T07:47:15.481Z,232
2017-11-12T07:47:56.005Z,236
2017-11-12T07:48:36.593Z,240
2017-11-12T07:49:17.117Z,244
2017-11-12T07:49:57.657Z,248
2017-11-12T07:50:38.251Z,256
2017-11-12T07:51:18.733Z,268
2017-11-12T07:51:59.322Z,284
2017-11-12T07:52:39.908Z,312
2017-11-12T07:53:20.445Z,344
2017-11-12T07:54:00.972Z,372
2017-11-12T07:54:41.554Z,392
2017-11-12T07:55:22.070Z,400
2017-11-12T07:56:02.638Z,408
2017-11-12T07:56:43.234Z,408
2017-11-12T07:57:23.748Z,400
2017-11-12T07:58:04.253Z,388
2017-11-12T07:58:44.815Z,388
2017-11-12T07:59:25.343Z,388
2017-11-12T08:00:05.995Z,388
2017-11-12T08:00:46.508Z,388
2017-11-12T08:01:27.081Z,392
2017-11-12T08:02:07.632Z,396
2017-11-12T08:02:48.081Z,392
2017-11-12T08:03:28.738Z,388
2017-11-12T08:04:09.295Z,384
2017-11-12T08:04:49.854Z,380
2017-11-12T08:05:30.395Z,372
2017-11-12T08:06:10.951Z,356
2017-11-12T08:06:51.645Z,340
2017-11-12T08:07:32.198Z,336
2017-11-12T08:08:12.792Z,340
2017-11-12T08:08:53.322Z,344
2017-11-12T08:09:33.888Z,352
2017-11-12T08:10:14.439Z,352
2017-11-12T08:10:54.937Z,352
2017-11-12T08:11:35.492Z,344
2017-11-12T08:12:16.043Z,344
2017-11-12T08:12:56.577Z,348
2017-11-12T08:13:37.087Z,360
2017-11-12T08:14:17.656Z,376
2017-11-12T08:14:58.211Z,384
2017-11-12T08:15:38.773Z,392
2017-11-12T08:16:19.297Z,388
2017-11-12T08:16:59.806Z,376
2017-11-12T08:17:40.856Z,356
2017-11-12T08:18:20.927Z,332
2017-11-12T08:19:01.453Z,324
2017-11-12T08:19:41.991Z,328
2017-11-12T08:20:22.535Z,336
2017-11-12T08:21:03.123Z,352
2017-11-12T08:21:43.698Z,376
2017-11-12T08:22:24.286Z,392
2017-11-12T08:23:04.824Z,396
2017-11-12T08:23:45.369Z,400
2017-11-12T08:24:25.906Z,396
2017-11-12T08:25:06.469Z,396
2017-11-12T08:25:46.987Z,396
2017-11-12T08:26:27.544Z,396
2017-11-12T08:27:08.106Z,404
2017-11-12T08:27:48.672Z,412
2017-11-12T08:28:29.166Z,440
2017-11-12T08:29:09.743Z,468
2017-11-12T08:29:50.236Z,492
2017-11-12T08:30:30.738Z,512
2017-11-12T08:31:11.323Z,508
2017-11-12T08:31:51.877Z,484
2017-11-12T08:32:32.410Z,464
2017-11-12T08:33:12.953Z,452
2017-11-12T08:33:53.496Z,452
2017-11-12T08:34:34.082Z,472
2017-11-12T08:35:14.608Z,496
2017-11-12T08:35:55.163Z,520
2017-11-12T08:36:35.625Z,536
2017-11-12T08:37:16.195Z,560
2017-11-12T08:37:56.697Z,580
2017-11-12T08:38:37.266Z,580
2017-11-12T08:39:17.793Z,584
2017-11-12T08:39:58.381Z,596
2017-11-12T08:40:38.911Z,612
2017-11-12T08:41:19.440Z,612
2017-11-12T08:41:59.980Z,612
2017-11-12T08:42:40.645Z,616
2017-11-12T08:43:21.143Z,616
2017-11-12T08:44:01.667Z,608
2017-11-12T08:44:42.184Z,608
2017-11-12T08:45:22.752Z,592
2017-11-12T08:46:03.299Z,588
2017-11-12T08:46:43.876Z,596
2017-11-12T08:47:24.387Z,588
2017-11-12T08:48:04.933Z,552
2017-11-12T08:48:45.447Z,528
2017-11-12T08:49:26.010Z,516
2017-11-12T08:50:06.552Z,524
2017-11-12T08:50:47.038Z,532
2017-11-12T08:51:27.596Z,524
2017-11-12T08:52:08.122Z,508
2017-11-12T08:52:48.694Z,480
2017-11-12T08:53:29.261Z,444
2017-11-12T08:54:09.744Z,408
2017-11-12T08:54:50.301Z,392
2017-11-12T08:55:30.880Z,384
2017-11-12T08:56:11.454Z,392
2017-11-12T08:56:52.048Z,400
2017-11-12T08:57:32.563Z,408
2017-11-12T08:58:13.100Z,412
2017-11-12T08:58:53.637Z,412
2017-11-12T08:59:34.162Z,404
2017-11-12T09:00:14.748Z,400
2017-11-12T09:00:55.314Z,380
2017-11-12T09:01:35.799Z,376
2017-11-12T09:02:16.376Z,384
2017-11-12T09:02:56.889Z,412
2017-11-12T09:03:37.416Z,448
2017-11-12T09:04:17.977Z,476
2017-11-12T09:04:58.518Z,476
2017-11-12T09:05:39.042Z,456
2017-11-12T09:06:19.560Z,392
2017-11-12T09:07:00.091Z,336
2017-11-12T09:07:40.640Z,292
2017-11-12T09:08:21.208Z,284
2017-11-12T09:09:01.758Z,328
2017-11-12T09:09:42.337Z,428
2017-11-12T09:10:22.852Z,532
2017-11-12T09:11:03.400Z,592
2017-11-12T09:11:43.953Z,644
2017-11-12T09:12:24.519Z,640
2017-11-12T09:13:05.081Z,600
2017-11-12T09:13:45.640Z,572
2017-11-12T09:14:26.201Z,548
2017-11-12T09:15:06.731Z,508
2017-11-12T09:15:47.238Z,484
2017-11-12T09:16:27.825Z,512
2017-11-12T09:17:08.339Z,572
2017-11-12T09:17:48.909Z,568
2017-11-12T09:18:29.388Z,540
2017-11-12T09:19:09.971Z,528
2017-11-12T09:19:50.544Z,544
2017-11-12T09:20:31.128Z,544
2017-11-12T09:21:11.614Z,540
2017-11-12T09:21:52.169Z,520
2017-11-12T09:22:32.737Z,480
2017-11-12T09:23:13.253Z,520
2017-11-12T09:23:53.785Z,536
2017-11-12T09:24:34.370Z,524
2017-11-12T09:25:14.868Z,536
2017-11-12T09:25:55.443Z,524
2017-11-12T09:26:35.982Z,520
2017-11-12T09:27:16.513Z,516
2017-11-12T09:27:57.054Z,540
2017-11-12T09:28:37.619Z,612
2017-11-12T09:29:18.185Z,684
2017-11-12T09:29:58.690Z,700
2017-11-12T09:30:39.220Z,660
2017-11-12T09:31:19.780Z,648
2017-11-12T09:32:00.305Z,616
2017-11-12T09:32:40.854Z,536
2017-11-12T09:33:21.429Z,508
2017-11-12T09:34:02.036Z,572
2017-11-12T09:34:42.581Z,692
2017-11-12T09:35:23.158Z,796
2017-11-12T09:36:03.754Z,892
2017-11-12T09:36:44.334Z,956
2017-11-12T09:37:24.877Z,936
2017-11-12T09:38:05.441Z,892
2017-11-12T09:38:46.207Z,828
2017-11-12T09:39:26.719Z,748
2017-11-12T09:40:07.240Z,644
2017-11-12T09:40:47.916Z,632
2017-11-12T09:41:28.464Z,672
2017-11-12T09:42:09.068Z,768
2017-11-12T09:42:49.570Z,756
2017-11-12T09:43:30.121Z,684
2017-11-12T09:44:10.661Z,580
2017-11-12T09:44:51.188Z,504
2017-11-12T09:45:31.736Z,504
2017-11-12T09:46:12.462Z,552
2017-11-12T09:46:53.988Z,620
2017-11-12T09:47:35.541Z,668
2017-11-12T09:48:17.168Z,660
2017-11-12T09:48:58.781Z,656
2017-11-12T09:49:40.484Z,644
2017-11-12T09:50:21.902Z,608
2017-11-12T09:51:03.493Z,600
2017-11-12T09:51:45.094Z,600
2017-11-12T09:52:26.710Z,640
2017-11-12T09:53:07.535Z,692
2017-11-12T09:53:48.167Z,644
2017-11-12T09:54:28.666Z,612
2017-11-12T09:55:09.264Z,588
2017-11-12T09:55:49.757Z,612
2017-11-12T09:56:30.333Z,732
2017-11-12T09:57:10.934Z,924
2017-11-12T09:57:51.501Z,1088
2017-11-12T09:58:33.061Z,1240
2017-11-12T09:59:13.581Z,1204
2017-11-12T09:59:54.190Z,948
2017-11-12T10:00:34.741Z,760
2017-11-12T10:01:15.253Z,640
2017-11-12T10:01:55.760Z,556
2017-11-12T10:02:36.278Z,520
2017-11-12T10:03:17.008Z,520
2017-11-12T10:03:57.565Z,520
2017-11-12T10:04:38.044Z,604
2017-11-12T10:05:18.624Z,764
2017-11-12T10:05:59.189Z,1024
2017-11-12T10:06:39.908Z,1244
2017-11-12T10:07:20.448Z,1392
2017-11-12T10:08:01.067Z,1548
2017-11-12T10:08:41.750Z,1580
2017-11-12T10:09:22.367Z,1444
2017-11-12T10:10:02.901Z,1212
2017-11-12T10:10:43.408Z,1020
2017-11-12T10:11:24.370Z,1024
2017-11-12T10:12:04.860Z,944
2017-11-12T10:12:45.387Z,996
2017-11-12T10:13:26.082Z,984
2017-11-12T10:14:06.628Z,920
2017-11-12T10:14:47.187Z,880
2017-11-12T10:15:27.754Z,784
2017-11-12T10:16:08.291Z,792
2017-11-12T10:16:48.849Z,736
2017-11-12T10:17:29.408Z,804
2017-11-12T10:18:09.934Z,844
2017-11-12T10:18:50.435Z,820
2017-11-12T10:19:30.975Z,752
2017-11-12T10:20:11.522Z,672
2017-11-12T10:20:52.289Z,692
2017-11-12T10:21:32.778Z,760
2017-11-12T10:22:13.362Z,816
2017-11-12T10:22:53.906Z,808
2017-11-12T10:23:34.545Z,792
2017-11-12T10:24:15.034Z,768
2017-11-12T10:24:55.670Z,776
2017-11-12T10:25:36.184Z,748
2017-11-12T10:26:16.781Z,688
2017-11-12T10:26:57.351Z,660
2017-11-12T10:27:37.917Z,664
2017-11-12T10:28:18.638Z,656
2017-11-12T10:28:59.288Z,572
2017-11-12T10:29:39.791Z,464
2017-11-12T10:30:20.394Z,388
2017-11-12T10:31:00.926Z,360
2017-11-12T10:31:41.463Z,308
2017-11-12T10:32:21.985Z,244
2017-11-12T10:33:02.498Z,212
2017-11-12T10:33:43.064Z,176
2017-11-12T10:34:23.560Z,152
2017-11-12T10:35:04.312Z,140
2017-11-12T10:35:44.826Z,136
2017-11-12T10:36:25.610Z,144
2017-11-12T10:37:06.193Z,152
2017-11-12T10:37:46.739Z,160
2017-11-12T10:38:27.283Z,172
2017-11-12T10:39:07.832Z,184
2017-11-12T10:39:48.319Z,208
2017-11-12T10:40:28.877Z,236
2017-11-12T10:41:09.705Z,264
2017-11-12T10:41:50.390Z,308
2017-11-12T10:42:30.920Z,400
2017-11-12T10:43:11.464Z,532
2017-11-12T10:43:52.205Z,620
2017-11-12T10:44:32.707Z,676
2017-11-12T10:45:13.220Z,736
2017-11-12T10:45:53.749Z,792
2017-11-12T10:46:34.309Z,836
2017-11-12T10:47:14.848Z,976
2017-11-12T10:47:55.392Z,1052
2017-11-12T10:48:36.009Z,1168
2017-11-12T10:49:16.583Z,1216
2017-11-12T10:49:57.324Z,1100
2017-11-12T10:50:37.979Z,1028
2017-11-12T10:51:18.537Z,912
2017-11-12T10:51:59.066Z,900
2017-11-12T10:52:39.811Z,964
2017-11-12T10:53:20.254Z,876
2017-11-12T10:54:00.776Z,716
2017-11-12T10:54:41.375Z,628
2017-11-12T10:55:21.931Z,628
2017-11-12T10:56:02.437Z,516
2017-11-12T10:56:43.013Z,480
2017-11-12T10:57:23.571Z,496
2017-11-12T10:58:04.156Z,456
2017-11-12T10:58:44.713Z,528
2017-11-12T10:59:25.231Z,620
2017-11-12T11:00:05.788Z,596
2017-11-12T11:00:46.382Z,536
2017-11-12T11:01:26.899Z,548
2017-11-12T11:02:07.522Z,576
2017-11-12T11:02:48.060Z,652
2017-11-12T11:03:28.598Z,648
2017-11-12T11:04:09.125Z,532
2017-11-12T11:04:49.701Z,464
2017-11-12T11:05:30.232Z,492
2017-11-12T11:06:10.744Z,508
2017-11-12T11:06:51.257Z,488
2017-11-12T11:07:31.766Z,404
2017-11-12T11:08:12.356Z,364
2017-11-12T11:08:52.958Z,440
2017-11-12T11:09:33.571Z,392
2017-11-12T11:10:14.049Z,360
2017-11-12T11:10:54.610Z,320
2017-11-12T11:11:35.126Z,364
2017-11-12T11:12:15.678Z,416
2017-11-12T11:12:56.323Z,408
2017-11-12T11:13:36.927Z,376
2017-11-12T11:14:17.571Z,356
2017-11-12T11:14:58.038Z,324
2017-11-12T11:15:38.592Z,380
2017-11-12T11:16:19.155Z,548
2017-11-12T11:16:59.746Z,640
2017-11-12T11:17:40.276Z,936
2017-11-12T11:18:20.801Z,976
2017-11-12T11:19:01.357Z,888
2017-11-12T11:19:41.877Z,828
2017-11-12T11:20:22.510Z,692
2017-11-12T11:21:03.104Z,508
2017-11-12T11:21:43.585Z,404
2017-11-12T11:22:24.150Z,400
2017-11-12T11:23:04.680Z,428
2017-11-12T11:23:45.335Z,424
2017-11-12T11:24:25.839Z,420
2017-11-12T11:25:06.393Z,432
2017-11-12T11:25:46.945Z,436
2017-11-12T11:26:27.677Z,432
2017-11-12T11:27:08.241Z,564
2017-11-12T11:27:48.814Z,732
2017-11-12T11:28:29.317Z,944
2017-11-12T11:29:09.928Z,1096
2017-11-12T11:29:50.482Z,1244
2017-11-12T11:30:31.055Z,1228
2017-11-12T11:31:11.593Z,1048
2017-11-12T11:31:52.180Z,952
2017-11-12T11:32:32.777Z,928
2017-11-12T11:33:13.289Z,888
2017-11-12T11:33:53.841Z,888
2017-11-12T11:34:34.352Z,920
2017-11-12T11:35:15.096Z,772
2017-11-12T11:35:55.683Z,648
2017-11-12T11:36:36.144Z,648
2017-11-12T11:37:16.814Z,544
2017-11-12T11:37:57.478Z,416
2017-11-12T11:38:37.963Z,372
2017-11-12T11:39:18.509Z,388
2017-11-12T11:39:59.037Z,404
2017-11-12T11:40:39.536Z,488
2017-11-12T11:41:20.090Z,460
2017-11-12T11:42:00.640Z,424
2017-11-12T11:42:41.208Z,388
2017-11-12T11:43:21.708Z,332
2017-11-12T11:44:02.334Z,284
2017-11-12T11:44:42.904Z,268
2017-11-12T11:45:23.421Z,244
2017-11-12T11:46:03.961Z,272
2017-11-12T11:46:44.579Z,284
2017-11-12T11:47:25.073Z,308
2017-11-12T11:48:05.628Z,344
2017-11-12T11:48:46.185Z,356
2017-11-12T11:49:26.786Z,364
2017-11-12T11:50:07.349Z,304
2017-11-12T11:50:47.873Z,272
2017-11-12T11:51:28.459Z,224
2017-11-12T11:52:08.990Z,240
2017-11-12T11:52:49.703Z,304
2017-11-12T11:53:30.243Z,236
2017-11-12T11:54:11.014Z,296
2017-11-12T11:54:51.580Z,308
2017-11-12T11:55:32.175Z,392
2017-11-12T11:56:12.761Z,404
2017-11-12T11:56:53.450Z,296
2017-11-12T11:57:33.931Z,264
2017-11-12T11:58:14.505Z,256
2017-11-12T11:58:55.156Z,216
2017-11-12T11:59:35.718Z,248
2017-11-12T12:00:16.523Z,220
2017-11-12T12:00:57.537Z,192
2017-11-12T12:01:38.051Z,216
2017-11-12T12:02:18.644Z,264
2017-11-12T12:02:59.232Z,292
2017-11-12T12:03:39.791Z,264
2017-11-12T12:04:20.363Z,240
2017-11-12T12:05:01.090Z,196
2017-11-12T12:05:41.645Z,192
2017-11-12T12:06:22.134Z,184
2017-11-12T12:07:02.770Z,128
2017-11-12T12:07:43.270Z,124
2017-11-12T12:08:23.835Z,140
2017-11-12T12:09:04.508Z,176
2017-11-12T12:09:45.031Z,176
2017-11-12T12:10:25.626Z,212
2017-11-12T12:11:06.202Z,220
2017-11-12T12:11:46.723Z,224
2017-11-12T12:12:27.282Z,228
2017-11-12T12:13:07.842Z,220
2017-11-12T12:13:48.394Z,216
2017-11-12T12:14:28.908Z,200
2017-11-12T12:15:09.420Z,184
2017-11-12T12:15:50.007Z,188
2017-11-12T12:16:30.551Z,196
2017-11-12T12:17:11.207Z,180
2017-11-12T12:17:51.717Z,160
2017-11-12T12:18:32.311Z,132
2017-11-12T12:19:12.857Z,108
2017-11-12T12:19:53.456Z,128
2017-11-12T12:20:33.988Z,164
2017-11-12T12:21:14.470Z,180
2017-11-12T12:21:55.015Z,196
2017-11-12T12:22:35.561Z,204
2017-11-12T12:23:16.159Z,196
2017-11-12T12:23:56.659Z,192
2017-11-12T12:24:37.235Z,188
2017-11-12T12:25:17.861Z,180
2017-11-12T12:25:58.439Z,204
2017-11-12T12:26:38.959Z,224
2017-11-12T12:27:19.545Z,244
2017-11-12T12:28:00.171Z,260
2017-11-12T12:28:40.651Z,288
2017-11-12T12:29:21.265Z,300
2017-11-12T12:30:01.890Z,320
2017-11-12T12:30:42.418Z,340
2017-11-12T12:31:22.995Z,348
2017-11-12T12:32:03.559Z,356
2017-11-12T12:32:44.173Z,364
2017-11-12T12:33:24.651Z,372
2017-11-12T12:34:05.237Z,400
2017-11-12T12:34:47.501Z,428
2017-11-12T12:35:28.053Z,464
2017-11-12T12:36:08.778Z,512
2017-11-12T12:36:49.353Z,568
2017-11-12T12:37:29.874Z,584
2017-11-12T12:38:10.810Z,548
2017-11-12T12:38:51.365Z,512
2017-11-12T12:39:31.915Z,488
2017-11-12T12:40:12.773Z,464
2017-11-12T12:40:53.300Z,436
2017-11-12T12:41:33.953Z,444
2017-11-12T12:42:14.533Z,464
2017-11-12T12:42:55.174Z,484
2017-11-12T12:43:35.740Z,492
2017-11-12T12:44:16.535Z,500
2017-11-12T12:44:57.103Z,504
2017-11-12T12:45:37.815Z,480
2017-11-12T12:46:18.333Z,468
2017-11-12T12:46:58.940Z,468
2017-11-12T12:47:39.489Z,480
2017-11-12T12:48:19.991Z,500
2017-11-12T12:49:00.569Z,500
2017-11-12T12:49:41.189Z,472
2017-11-12T12:50:21.730Z,436
2017-11-12T12:51:02.312Z,356
2017-11-12T12:51:42.880Z,272
2017-11-12T12:52:23.516Z,200
2017-11-12T12:53:04.042Z,164
2017-11-12T12:53:44.583Z,152
2017-11-12T12:54:25.119Z,172
2017-11-12T12:55:05.662Z,180
2017-11-12T12:55:46.196Z,188
2017-11-12T12:56:26.816Z,204
2017-11-12T12:57:07.369Z,224
2017-11-12T12:57:47.896Z,236
2017-11-12T12:58:28.476Z,252
2017-11-12T12:59:08.998Z,292
2017-11-12T12:59:49.586Z,328
2017-11-12T13:00:30.115Z,332
2017-11-12T13:01:10.681Z,284
2017-11-12T13:01:51.187Z,224
2017-11-12T13:02:31.816Z,176
2017-11-12T13:03:12.294Z,152
2017-11-12T13:03:52.852Z,160
2017-11-12T13:04:33.568Z,168
2017-11-12T13:05:14.145Z,184
2017-11-12T13:05:54.682Z,184
2017-11-12T13:06:35.355Z,180
2017-11-12T13:07:15.919Z,184
2017-11-12T13:07:56.534Z,200
2017-11-12T13:08:37.154Z,216
2017-11-12T13:09:17.687Z,224
2017-11-12T13:09:58.203Z,212
2017-11-12T13:10:38.806Z,196
2017-11-12T13:11:19.304Z,180
2017-11-12T13:11:59.919Z,180
2017-11-12T13:12:40.408Z,200
2017-11-12T13:13:20.986Z,208
2017-11-12T13:14:01.522Z,208
2017-11-12T13:14:42.136Z,244
2017-11-12T13:15:22.622Z,244
2017-11-12T13:16:03.245Z,256
2017-11-12T13:16:43.745Z,248
2017-11-12T13:17:24.316Z,268
2017-11-12T13:18:05.139Z,296
2017-11-12T13:18:45.667Z,312
2017-11-12T13:19:26.270Z,320
2017-11-12T13:20:06.944Z,260
2017-11-12T13:20:47.465Z,228
2017-11-12T13:21:28.124Z,208
2017-11-12T13:22:08.701Z,228
2017-11-12T13:22:49.204Z,248
2017-11-12T13:23:29.771Z,264
2017-11-12T13:24:10.373Z,288
2017-11-12T13:24:50.934Z,280
2017-11-12T13:25:31.481Z,264
2017-11-12T13:26:12.011Z,284
2017-11-12T13:26:52.480Z,268
2017-11-12T13:27:33.146Z,232
2017-11-12T13:28:13.639Z,232
2017-11-12T13:28:54.200Z,244
2017-11-12T13:29:34.703Z,212
2017-11-12T13:30:15.273Z,188
2017-11-12T13:30:55.940Z,212
2017-11-12T13:31:36.500Z,220
2017-11-12T13:32:17.044Z,236
2017-11-12T13:32:57.670Z,260
2017-11-12T13:33:38.249Z,296
2017-11-12T13:34:18.861Z,336
2017-11-12T13:34:59.458Z,396
2017-11-12T13:35:40.037Z,432
2017-11-12T13:36:20.528Z,428
2017-11-12T13:37:01.119Z,412
2017-11-12T13:37:41.649Z,388
2017-11-12T13:38:22.190Z,428
2017-11-12T13:39:02.813Z,460
2017-11-12T13:39:43.381Z,460
2017-11-12T13:40:23.867Z,448
2017-11-12T13:41:04.492Z,432
2017-11-12T13:41:44.956Z,432
2017-11-12T13:42:25.566Z,456
2017-11-12T13:43:06.144Z,488
2017-11-12T13:43:46.698Z,544
2017-11-12T13:44:27.241Z,604
2017-11-12T13:45:07.860Z,652
2017-11-12T13:45:48.450Z,676
2017-11-12T13:46:29.198Z,648
2017-11-12T13:47:09.915Z,544
2017-11-12T13:47:50.479Z,480
2017-11-12T13:48:31.040Z,444
2017-11-12T13:49:11.580Z,460
2017-11-12T13:49:52.182Z,472
2017-11-12T13:50:32.700Z,500
2017-11-12T13:51:13.319Z,540
2017-11-12T13:51:54.068Z,608
2017-11-12T13:52:34.629Z,632
2017-11-12T13:53:15.223Z,624
2017-11-12T13:53:55.765Z,656
2017-11-12T13:54:36.383Z,712
2017-11-12T13:55:17.647Z,700
2017-11-12T13:55:58.141Z,620
2017-11-12T13:56:38.800Z,604
2017-11-12T13:57:19.334Z,628
2017-11-12T13:57:59.853Z,660
2017-11-12T13:58:40.380Z,640
2017-11-12T13:59:20.979Z,572
2017-11-12T14:00:01.636Z,508
2017-11-12T14:00:42.198Z,496
2017-11-12T14:01:22.695Z,496
2017-11-12T14:02:03.305Z,492
2017-11-12T14:02:43.802Z,468
2017-11-12T14:03:24.427Z,428
2017-11-12T14:04:04.954Z,404
2017-11-12T14:04:45.532Z,384
2017-11-12T14:05:26.135Z,372
2017-11-12T14:06:06.670Z,356
2017-11-12T14:06:47.255Z,348
2017-11-12T14:07:27.784Z,380
2017-11-12T14:08:08.258Z,384
2017-11-12T14:08:48.863Z,384
2017-11-12T14:09:29.353Z,380
2017-11-12T14:10:09.923Z,380
2017-11-12T14:10:50.409Z,384
2017-11-12T14:11:31.024Z,400
2017-11-12T14:12:11.689Z,424
2017-11-12T14:12:52.240Z,448
2017-11-12T14:13:32.777Z,440
2017-11-12T14:14:13.297Z,460
2017-11-12T14:14:53.853Z,460
2017-11-12T14:15:34.576Z,488
2017-11-12T14:16:15.101Z,560
2017-11-12T14:16:55.700Z,660
2017-11-12T14:17:39.012Z,764
2017-11-12T14:18:19.562Z,836
2017-11-12T14:19:00.172Z,884
2017-11-12T14:19:40.823Z,908
2017-11-12T14:20:21.343Z,920
2017-11-12T14:21:01.903Z,884
2017-11-12T14:21:42.489Z,804
2017-11-12T14:22:23.263Z,696
2017-11-12T14:23:03.831Z,572
2017-11-12T14:23:44.342Z,500
2017-11-12T14:24:24.846Z,456
2017-11-12T14:25:05.499Z,456
2017-11-12T14:25:46.074Z,456
2017-11-12T14:26:26.584Z,456
2017-11-12T14:27:07.188Z,456
2017-11-12T14:27:48.199Z,412
2017-11-12T14:28:28.758Z,356
2017-11-12T14:29:09.243Z,328
2017-11-12T14:29:49.898Z,316
2017-11-12T14:30:30.500Z,280
2017-11-12T14:31:11.044Z,300
2017-11-12T14:31:51.694Z,304
2017-11-12T14:32:32.196Z,296
2017-11-12T14:33:15.689Z,292
2017-11-12T14:33:56.371Z,280
2017-11-12T14:34:37.078Z,264
2017-11-12T14:35:17.935Z,244
2017-11-12T14:35:58.700Z,236
2017-11-12T14:36:39.081Z,232
2017-11-12T14:37:19.870Z,220
2017-11-12T14:38:00.424Z,204
2017-11-12T14:38:40.943Z,196
2017-11-12T14:39:21.596Z,200
2017-11-12T14:40:02.116Z,216
2017-11-12T14:40:42.697Z,256
2017-11-12T14:41:23.321Z,288
2017-11-12T14:42:03.831Z,296
2017-11-12T14:42:44.545Z,292
2017-11-12T14:43:25.159Z,272
2017-11-12T14:44:05.717Z,264
2017-11-12T14:44:46.272Z,272
2017-11-12T14:45:26.924Z,284
2017-11-12T14:46:07.493Z,296
2017-11-12T14:46:48.066Z,304
2017-11-12T14:47:28.716Z,316
2017-11-12T14:48:09.246Z,336
2017-11-12T14:48:49.804Z,348
2017-11-12T14:49:30.604Z,364
2017-11-12T14:50:11.106Z,368
2017-11-12T14:50:51.613Z,360
2017-11-12T14:51:32.428Z,348
2017-11-12T14:52:12.979Z,344
2017-11-12T14:52:53.543Z,356
2017-11-12T14:53:34.161Z,380
2017-11-12T14:54:14.801Z,400
2017-11-12T14:54:55.431Z,424
2017-11-12T14:55:36.209Z,436
2017-11-12T14:56:16.775Z,420
2017-11-12T14:56:57.273Z,424
2017-11-12T14:57:37.861Z,404
2017-11-12T14:58:18.445Z,372
2017-11-12T14:58:59.017Z,336
2017-11-12T14:59:39.585Z,316
2017-11-12T15:00:20.188Z,304
2017-11-12T15:01:00.714Z,288
2017-11-12T15:01:41.304Z,280
2017-11-12T15:02:21.895Z,272
2017-11-12T15:03:02.428Z,272
2017-11-12T15:03:42.971Z,264
2017-11-12T15:04:23.687Z,268
2017-11-12T15:05:04.341Z,276
2017-11-12T15:05:44.886Z,276
2017-11-12T15:06:25.485Z,276
2017-11-12T15:07:06.248Z,256
2017-11-12T15:07:46.813Z,240
2017-11-12T15:08:27.357Z,232
2017-11-12T15:09:07.966Z,228
2017-11-12T15:09:48.563Z,216
2017-11-12T15:10:29.148Z,196
2017-11-12T15:11:09.833Z,164
2017-11-12T15:11:50.310Z,148
2017-11-12T15:12:30.907Z,144
2017-11-12T15:13:11.661Z,140
2017-11-12T15:13:52.265Z,132
2017-11-12T15:14:32.932Z,124
2017-11-12T15:15:13.526Z,112
2017-11-12T15:15:54.037Z,104
2017-11-12T15:16:34.655Z,104
2017-11-12T15:17:15.299Z,104
2017-11-12T15:17:56.031Z,108
2017-11-12T15:18:36.747Z,104
2017-11-12T15:19:17.485Z,104
2017-11-12T15:19:58.165Z,108
2017-11-12T15:20:38.820Z,108
2017-11-12T15:21:19.532Z,108
2017-11-12T15:22:00.023Z,104
2017-11-12T15:22:40.687Z,92
2017-11-12T15:23:21.157Z,80
2017-11-12T15:24:01.771Z,80
2017-11-12T15:24:42.418Z,84
2017-11-12T15:25:23.037Z,92
2017-11-12T15:26:03.580Z,84
2017-11-12T15:26:44.583Z,64
2017-11-12T15:27:25.082Z,52
2017-11-12T15:28:05.753Z,52
2017-11-12T15:28:46.672Z,48
2017-11-12T15:29:27.446Z,48
2017-11-12T15:30:08.379Z,48
2017-11-12T15:30:48.977Z,48
2017-11-12T15:31:29.663Z,52
2017-11-12T15:32:10.303Z,68
2017-11-12T15:32:51.327Z,88
2017-11-12T15:33:33.794Z,100
2017-11-12T15:34:14.565Z,100
2017-11-12T15:34:55.058Z,96
2017-11-12T15:35:35.582Z,92
2017-11-12T15:36:16.271Z,84
2017-11-12T15:36:56.729Z,72
2017-11-12T15:37:37.890Z,60
2017-11-12T15:38:18.978Z,56
2017-11-12T15:38:59.212Z,56
2017-11-12T15:39:40.042Z,48
2017-11-12T15:40:20.595Z,44
2017-11-12T15:41:01.175Z,44
2017-11-12T15:41:41.732Z,40
2017-11-12T15:42:22.483Z,32
2017-11-12T15:43:02.895Z,32
2017-11-12T15:43:43.460Z,28
2017-11-12T15:44:24.281Z,36
2017-11-12T15:45:04.832Z,40
2017-11-12T15:45:45.351Z,40
2017-11-12T15:46:26.057Z,36
2017-11-12T15:47:06.759Z,32
2017-11-12T15:47:47.464Z,28
2017-11-12T15:48:28.167Z,28
2017-11-12T15:49:09.457Z,28
2017-11-12T15:49:49.962Z,28
2017-11-12T15:50:30.545Z,28
2017-11-12T15:51:11.193Z,24
2017-11-12T15:51:51.889Z,24
2017-11-12T15:52:32.524Z,24
2017-11-12T15:53:13.116Z,16
2017-11-12T15:53:53.647Z,16
2017-11-12T15:54:34.392Z,16
2017-11-12T15:55:14.956Z,16
2017-11-12T15:55:55.427Z,12
2017-11-12T15:56:35.977Z,12
2017-11-12T15:57:16.607Z,8
2017-11-12T15:57:57.121Z,8
2017-11-12T15:58:37.688Z,8
2017-11-12T15:59:18.522Z,4
2017-11-12T15:59:58.985Z,8
2017-11-12T16:00:39.509Z,4
2017-11-12T16:01:20.434Z,8
2017-11-12T16:02:01.008Z,4
2017-11-12T16:02:41.440Z,4
2017-11-12T16:03:22.094Z,0
2017-11-12T16:04:02.859Z,4
2017-11-12T16:04:43.661Z,0
2017-11-12T16:05:24.566Z,0
2017-11-12T16:06:05.469Z,4
2017-11-12T16:06:46.049Z,4
2017-11-12T16:07:26.624Z,4
2017-11-12T16:08:07.215Z,4
2017-11-12T16:08:47.791Z,4
2017-11-12T16:09:28.431Z,0
2017-11-12T16:10:08.949Z,0
2017-11-12T16:10:49.965Z,0
2017-11-12T16:11:30.742Z,0
2017-11-12T16:12:11.401Z,0
2017-11-12T16:12:51.973Z,0
2017-11-12T16:13:32.596Z,0
2017-11-12T16:14:13.252Z,0
2017-11-12T16:14:55.069Z,0
2017-11-12T16:15:34.935Z,0
2017-11-12T16:16:15.791Z,0
2017-11-12T16:16:56.732Z,0
2017-11-12T16:17:37.177Z,0
2017-11-12T16:18:17.811Z,0
2017-11-12T16:18:58.463Z,0
2017-11-12T16:19:39.156Z,0
2017-11-12T16:20:19.738Z,0
2017-11-12T16:21:00.589Z,0
2017-11-12T16:21:42.040Z,0
2017-11-12T16:22:22.776Z,0
2017-11-12T16:23:03.513Z,0
2017-11-12T16:23:45.146Z,0
2017-11-12T16:24:25.861Z,0
2017-11-12T16:25:06.626Z,0
2017-11-12T16:25:47.265Z,0
2017-11-12T16:26:27.936Z,0
2017-11-12T16:27:08.704Z,0
2017-11-12T16:27:49.399Z,0
2017-11-12T16:28:30.486Z,0
2017-11-12T16:29:11.015Z,0
2017-11-12T16:29:51.594Z,0
2017-11-12T16:30:32.995Z,0
2017-11-12T16:31:12.976Z,0
2017-11-12T16:31:53.336Z,0
2017-11-12T16:32:34.296Z,0
2017-11-12T16:33:15.198Z,0
2017-11-12T16:33:55.754Z,0
2017-11-12T16:34:36.415Z,0
2017-11-12T16:35:17.036Z,0
2017-11-12T16:35:57.591Z,0
2017-11-12T16:36:38.128Z,0
2017-11-12T16:37:18.731Z,0
2017-11-12T16:37:59.400Z,0
2017-11-12T16:38:40.141Z,0
2017-11-12T16:39:20.937Z,0
2017-11-12T16:40:01.447Z,0
2017-11-12T16:40:42.166Z,0
2017-11-12T16:41:22.889Z,0
2017-11-12T16:42:03.489Z,0
2017-11-12T16:42:44.354Z,0
2017-11-12T16:43:24.867Z,0
2017-11-12T16:44:05.533Z,0
2017-11-12T16:44:45.994Z,0
2017-11-12T16:45:26.669Z,0
2017-11-12T16:46:07.214Z,0
2017-11-12T16:46:47.798Z,0
2017-11-12T16:47:28.509Z,0
2017-11-12T16:48:08.986Z,0
2017-11-12T16:48:49.597Z,0
2017-11-12T16:49:30.134Z,0
2017-11-12T16:50:10.832Z,0
2017-11-12T16:50:51.444Z,0
2017-11-12T16:51:32.787Z,0
2017-11-12T16:52:13.045Z,0
2017-11-12T16:52:53.610Z,0